createdAt,value
2023-01-07T00:01:14.761Z,11.90
2023-01-07T00:03:43.392Z,11.90
2023-01-07T00:06:23.164Z,11.90
2023-01-07T00:08:52.381Z,12.10
2023-01-07T00:11:40.549Z,12.00
2023-01-07T00:14:10.135Z,11.90
2023-01-07T00:16:38.537Z,12.00
2023-01-07T00:19:07.834Z,11.90
2023-01-07T00:21:35.410Z,11.90
2023-01-07T00:24:05.389Z,11.90
2023-01-07T00:26:37.979Z,11.90
2023-01-07T00:29:06.570Z,11.90
2023-01-07T00:31:36.804Z,11.90
2023-01-07T00:34:04.290Z,11.90
2023-01-07T00:36:34.276Z,11.90
2023-01-07T00:39:05.512Z,11.90
2023-01-07T00:41:33.041Z,11.90
2023-01-07T00:44:00.897Z,11.90
2023-01-07T00:46:29.684Z,11.90
2023-01-07T00:48:57.665Z,11.90
2023-01-07T00:51:25.432Z,11.90
2023-01-07T00:53:52.913Z,12.00
2023-01-07T00:56:20.445Z,12.00
2023-01-07T00:58:47.967Z,11.90
2023-01-07T01:01:16.363Z,11.90
2023-01-07T01:03:43.992Z,11.90
2023-01-07T01:06:15.176Z,12.00
2023-01-07T01:08:44.379Z,11.90
2023-01-07T01:11:14.073Z,11.90
2023-01-07T01:13:41.887Z,11.90
2023-01-07T01:16:12.075Z,11.90
2023-01-07T01:18:39.858Z,11.90
2023-01-07T01:21:10.626Z,11.90
2023-01-07T01:23:38.654Z,12.00
2023-01-07T01:26:25.475Z,11.80
2023-01-07T01:28:52.883Z,11.80
2023-01-07T01:31:24.224Z,11.80
2023-01-07T01:33:55.264Z,11.80
2023-01-07T01:36:24.173Z,11.80
2023-01-07T01:38:53.593Z,11.90
2023-01-07T01:41:21.670Z,11.80
2023-01-07T01:43:51.653Z,11.80
2023-01-07T01:46:51.997Z,11.80
2023-01-07T01:49:25.660Z,11.90
2023-01-07T01:52:02.770Z,11.90
2023-01-07T01:54:31.429Z,11.90
2023-01-07T01:57:05.545Z,11.90
2023-01-07T01:59:37.933Z,11.80
2023-01-07T02:02:09.224Z,11.80
2023-01-07T02:04:37.404Z,11.80
2023-01-07T02:07:16.943Z,11.80
2023-01-07T02:10:09.220Z,11.80
2023-01-07T02:12:56.469Z,11.80
2023-01-07T02:15:43.881Z,11.80
2023-01-07T02:18:49.033Z,11.80
2023-01-07T02:21:52.225Z,11.80
2023-01-07T02:24:38.842Z,11.80
2023-01-07T02:27:41.574Z,11.80
2023-01-07T02:30:21.378Z,11.80
2023-01-07T02:33:08.769Z,11.80
2023-01-07T02:35:39.021Z,11.80
2023-01-07T02:38:12.392Z,11.80
2023-01-07T02:40:55.318Z,11.80
2023-01-07T02:43:55.435Z,11.80
2023-01-07T02:46:39.910Z,11.80
2023-01-07T02:49:14.327Z,11.80
2023-01-07T02:51:43.288Z,11.80
2023-01-07T02:54:17.181Z,12.20
2023-01-07T02:56:59.201Z,11.70
2023-01-07T02:59:43.638Z,11.70
2023-01-07T03:02:34.304Z,11.70
2023-01-07T03:05:32.470Z,11.70
2023-01-07T03:08:18.020Z,11.70
2023-01-07T03:11:06.378Z,11.70
2023-01-07T03:14:23.172Z,11.70
2023-01-07T03:16:57.685Z,11.70
2023-01-07T03:19:29.353Z,11.70
2023-01-07T03:21:58.963Z,12.10
2023-01-07T03:24:31.521Z,11.70
2023-01-07T03:27:01.983Z,11.60
2023-01-07T03:29:32.352Z,11.60
2023-01-07T03:32:13.308Z,11.60
2023-01-07T03:34:42.737Z,11.50
2023-01-07T03:37:14.306Z,11.70
2023-01-07T03:39:45.714Z,11.50
2023-01-07T03:42:33.979Z,11.50
2023-01-07T03:45:02.215Z,11.50
2023-01-07T03:47:32.843Z,11.50
2023-01-07T03:50:00.305Z,11.40
2023-01-07T03:52:27.977Z,11.50
2023-01-07T03:54:55.576Z,11.50
2023-01-07T03:57:23.195Z,11.40
2023-01-07T03:59:50.679Z,11.50
2023-01-07T04:02:18.168Z,11.40
2023-01-07T04:04:45.793Z,11.40
2023-01-07T04:07:13.854Z,11.40
2023-01-07T04:09:41.552Z,11.30
2023-01-07T04:12:09.944Z,11.40
2023-01-07T04:14:37.491Z,12.50
2023-01-07T04:17:05.373Z,11.30
2023-01-07T04:19:33.395Z,11.20
2023-01-07T04:22:00.829Z,11.20
2023-01-07T04:24:28.345Z,11.20
2023-01-07T04:26:55.906Z,11.20
2023-01-07T04:29:23.505Z,11.20
2023-01-07T04:31:51.253Z,11.60
2023-01-07T04:34:18.699Z,11.20
2023-01-07T04:36:46.309Z,11.20
2023-01-07T04:39:14.020Z,11.20
2023-01-07T04:41:41.471Z,11.20
2023-01-07T04:44:09.365Z,11.20
2023-01-07T04:46:36.905Z,11.20
2023-01-07T04:49:04.803Z,11.80
2023-01-07T04:51:32.642Z,11.50
2023-01-07T04:54:00.447Z,11.10
2023-01-07T04:56:27.928Z,11.20
2023-01-07T04:58:55.717Z,11.20
2023-01-07T05:01:25.407Z,11.20
2023-01-07T05:03:52.968Z,11.00
2023-01-07T05:06:20.897Z,11.00
2023-01-07T05:08:48.938Z,11.00
2023-01-07T05:11:21.482Z,11.00
2023-01-07T05:13:52.251Z,10.90
2023-01-07T05:16:20.751Z,10.90
2023-01-07T05:18:48.545Z,10.90
2023-01-07T05:21:16.101Z,10.90
2023-01-07T05:23:44.226Z,10.90
2023-01-07T05:26:11.688Z,10.90
2023-01-07T05:28:39.169Z,10.90
2023-01-07T05:31:06.993Z,10.90
2023-01-07T05:33:34.919Z,10.90
2023-01-07T05:36:03.716Z,10.90
2023-01-07T05:38:31.669Z,10.90
2023-01-07T05:40:59.168Z,10.90
2023-01-07T05:43:28.400Z,10.90
2023-01-07T05:45:59.243Z,10.90
2023-01-07T05:48:26.762Z,10.90
2023-01-07T05:50:54.280Z,10.90
2023-01-07T05:53:21.705Z,10.80
2023-01-07T05:55:54.959Z,10.90
2023-01-07T05:58:22.380Z,10.90
2023-01-07T06:00:49.880Z,10.90
2023-01-07T06:03:17.380Z,10.90
2023-01-07T06:05:44.991Z,10.90
2023-01-07T06:08:12.425Z,10.90
2023-01-07T06:10:40.479Z,11.00
2023-01-07T06:13:07.952Z,10.90
2023-01-07T06:15:35.661Z,10.90
2023-01-07T06:18:03.236Z,11.30
2023-01-07T06:20:34.496Z,10.80
2023-01-07T06:23:05.113Z,10.80
2023-01-07T06:25:32.660Z,10.80
2023-01-07T06:28:00.073Z,10.80
2023-01-07T06:30:27.569Z,10.80
2023-01-07T06:32:55.177Z,10.70
2023-01-07T06:35:22.701Z,11.20
2023-01-07T06:37:50.203Z,10.70
2023-01-07T06:40:18.226Z,10.90
2023-01-07T06:42:45.687Z,10.70
2023-01-07T06:45:13.360Z,11.10
2023-01-07T06:47:41.205Z,11.10
2023-01-07T06:50:09.219Z,10.80
2023-01-07T06:52:36.799Z,10.70
2023-01-07T06:55:04.858Z,11.10
2023-01-07T06:57:32.632Z,10.70
2023-01-07T07:00:00.052Z,10.70
2023-01-07T07:02:28.930Z,10.70
2023-01-07T07:04:56.606Z,10.70
2023-01-07T07:07:25.418Z,10.80
2023-01-07T07:09:52.888Z,10.70
2023-01-07T07:12:20.367Z,10.70
2023-01-07T07:14:47.888Z,10.70
2023-01-07T07:17:15.439Z,10.70
2023-01-07T07:19:42.897Z,10.70
2023-01-07T07:22:10.316Z,10.70
2023-01-07T07:24:37.763Z,10.70
2023-01-07T07:27:05.297Z,10.70
2023-01-07T07:29:32.783Z,10.70
2023-01-07T07:32:00.228Z,10.70
2023-01-07T07:34:27.935Z,10.70
2023-01-07T07:36:55.357Z,10.70
2023-01-07T07:39:22.787Z,10.70
2023-01-07T07:41:50.314Z,10.70
2023-01-07T07:44:18.901Z,10.90
2023-01-07T07:46:46.365Z,10.70
2023-01-07T07:49:13.870Z,11.00
2023-01-07T07:51:41.292Z,10.70
2023-01-07T07:54:08.771Z,10.70
2023-01-07T07:56:36.248Z,10.70
2023-01-07T07:59:03.956Z,11.50
2023-01-07T08:01:31.916Z,10.70
2023-01-07T08:03:59.395Z,10.90
2023-01-07T08:06:26.831Z,10.70
2023-01-07T08:08:54.266Z,10.70
2023-01-07T08:11:21.699Z,10.70
2023-01-07T08:13:49.153Z,10.70
2023-01-07T08:16:16.608Z,10.70
2023-01-07T08:18:44.080Z,10.70
2023-01-07T08:21:11.508Z,11.10
2023-01-07T08:23:38.942Z,10.70
2023-01-07T08:26:06.493Z,10.70
2023-01-07T08:28:34.735Z,10.70
2023-01-07T08:31:06.132Z,10.70
2023-01-07T08:33:37.664Z,10.70
2023-01-07T08:36:11.901Z,10.70
2023-01-07T08:38:45.740Z,10.70
2023-01-07T08:41:13.284Z,10.70
2023-01-07T08:43:41.867Z,10.70
2023-01-07T08:46:09.303Z,10.70
2023-01-07T08:48:38.891Z,10.70
2023-01-07T08:51:07.151Z,10.70
2023-01-07T08:53:34.724Z,10.70
2023-01-07T08:56:02.024Z,10.70
2023-01-07T08:58:29.557Z,10.70
2023-01-07T09:01:02.615Z,10.60
2023-01-07T09:03:30.092Z,10.50
2023-01-07T09:05:57.546Z,10.50
2023-01-07T09:08:25.332Z,10.40
2023-01-07T09:10:52.773Z,10.30
2023-01-07T09:13:20.219Z,10.30
2023-01-07T09:15:47.695Z,10.20
2023-01-07T09:18:15.124Z,10.50
2023-01-07T09:20:42.504Z,10.50
2023-01-07T09:23:10.083Z,11.00
2023-01-07T09:25:37.691Z,10.80
2023-01-07T09:28:05.083Z,10.10
2023-01-07T09:30:32.788Z,11.10
2023-01-07T09:33:00.400Z,10.10
2023-01-07T09:35:27.997Z,10.10
2023-01-07T09:37:55.549Z,10.00
2023-01-07T09:40:37.657Z,10.10
2023-01-07T09:43:20.958Z,10.00
2023-01-07T09:45:54.605Z,10.00
2023-01-07T09:48:31.153Z,10.70
2023-01-07T09:51:22.333Z,10.00
2023-01-07T09:53:52.529Z,10.00
2023-01-07T09:56:31.422Z,10.00
2023-01-07T09:59:01.010Z,9.90
2023-01-07T10:01:39.239Z,9.90
2023-01-07T10:04:31.120Z,9.90
2023-01-07T10:07:16.823Z,9.90
2023-01-07T10:09:53.659Z,9.90
2023-01-07T10:12:36.527Z,9.90
2023-01-07T10:15:22.374Z,9.90
2023-01-07T10:18:33.255Z,9.90
2023-01-07T10:21:00.787Z,10.00
2023-01-07T10:23:32.921Z,10.30
2023-01-07T10:26:02.220Z,9.90
2023-01-07T10:28:40.075Z,9.90
2023-01-07T10:31:16.608Z,9.90
2023-01-07T10:33:45.886Z,9.80
2023-01-07T10:36:21.303Z,9.80
2023-01-07T10:39:24.314Z,9.90
2023-01-07T10:41:58.156Z,9.80
2023-01-07T10:44:55.651Z,9.90
2023-01-07T10:47:42.404Z,9.90
2023-01-07T10:50:53.858Z,9.80
2023-01-07T10:53:41.565Z,9.90
2023-01-07T10:56:37.387Z,9.90
2023-01-07T10:59:05.395Z,9.90
2023-01-07T11:01:39.259Z,10.70
2023-01-07T11:04:15.212Z,9.90
2023-01-07T11:07:04.292Z,9.90
2023-01-07T11:09:36.780Z,10.90
2023-01-07T11:12:23.380Z,11.10
2023-01-07T11:14:53.452Z,9.90
2023-01-07T11:17:45.838Z,10.00
2023-01-07T11:20:13.429Z,10.00
2023-01-07T11:22:42.967Z,10.00
2023-01-07T11:25:31.314Z,8.80
2023-01-07T11:28:02.046Z,10.00
2023-01-07T11:30:33.062Z,10.90
2023-01-07T11:33:03.623Z,11.00
2023-01-07T11:35:32.022Z,11.50
2023-01-07T11:38:01.424Z,9.70
2023-01-07T11:40:32.074Z,10.20
2023-01-07T11:43:20.468Z,11.20
2023-01-07T11:46:21.162Z,10.20
2023-01-07T11:49:00.710Z,10.20
2023-01-07T11:51:39.808Z,10.30
2023-01-07T11:54:28.633Z,10.30
2023-01-07T11:57:12.242Z,10.30
2023-01-07T11:59:39.697Z,10.70
2023-01-07T12:02:25.542Z,10.90
2023-01-07T12:05:13.168Z,10.40
2023-01-07T12:07:45.884Z,10.40
2023-01-07T12:10:27.944Z,11.10
2023-01-07T12:12:56.059Z,10.50
2023-01-07T12:15:28.297Z,10.70
2023-01-07T12:18:10.306Z,10.60
2023-01-07T12:20:46.732Z,10.50
2023-01-07T12:23:32.180Z,10.50
2023-01-07T12:26:48.361Z,10.50
2023-01-07T12:29:38.658Z,10.60
2023-01-07T12:32:36.421Z,10.70
2023-01-07T12:35:14.267Z,10.70
2023-01-07T12:37:57.340Z,10.80
2023-01-07T12:40:32.068Z,10.90
2023-01-07T12:43:14.725Z,10.90
2023-01-07T12:45:53.521Z,10.90
2023-01-07T12:48:28.991Z,10.90
2023-01-07T12:51:00.949Z,10.90
2023-01-07T12:53:43.716Z,10.90
2023-01-07T12:56:18.609Z,10.90
2023-01-07T12:59:46.850Z,11.40
2023-01-07T13:02:48.600Z,13.00
2023-01-07T13:05:27.766Z,10.80
2023-01-07T13:08:14.215Z,10.80
2023-01-07T13:10:45.563Z,10.80
2023-01-07T13:13:20.598Z,11.30
2023-01-07T13:15:49.203Z,10.80
2023-01-07T13:18:18.936Z,10.90
2023-01-07T13:20:52.418Z,11.00
2023-01-07T13:23:26.016Z,10.80
2023-01-07T13:26:05.257Z,10.80
2023-01-07T13:28:47.774Z,10.80
2023-01-07T13:31:22.210Z,10.90
2023-01-07T13:34:04.314Z,10.90
2023-01-07T13:37:03.598Z,10.90
2023-01-07T13:39:49.117Z,10.90
2023-01-07T13:42:19.384Z,9.60
2023-01-07T13:45:08.448Z,10.80
2023-01-07T13:47:44.861Z,10.80
2023-01-07T13:50:23.833Z,10.90
2023-01-07T13:53:04.009Z,10.80
2023-01-07T13:55:38.094Z,11.30
2023-01-07T13:58:30.379Z,10.80
2023-01-07T14:01:05.894Z,10.90
2023-01-07T14:03:44.132Z,11.00
2023-01-07T14:06:20.649Z,11.10
2023-01-07T14:08:52.861Z,11.10
2023-01-07T14:11:32.481Z,11.20
2023-01-07T14:14:10.373Z,11.20
2023-01-07T14:16:57.082Z,11.30
2023-01-07T14:20:13.300Z,11.20
2023-01-07T14:22:52.433Z,11.20
2023-01-07T14:25:41.576Z,11.20
2023-01-07T14:28:25.971Z,11.20
2023-01-07T14:30:54.352Z,11.20
2023-01-07T14:33:26.371Z,11.20
2023-01-07T14:35:58.099Z,11.20
2023-01-07T14:38:31.454Z,11.20
2023-01-07T14:41:09.256Z,11.20
2023-01-07T14:43:46.109Z,11.20
2023-01-07T14:46:23.081Z,11.20
2023-01-07T14:49:36.873Z,11.50
2023-01-07T14:52:25.327Z,11.30
2023-01-07T14:55:29.982Z,11.40
2023-01-07T14:58:32.987Z,11.50
2023-01-07T15:01:14.964Z,11.60
2023-01-07T15:03:51.458Z,11.60
2023-01-07T15:06:26.900Z,11.60
2023-01-07T15:09:18.263Z,11.60
2023-01-07T15:12:06.154Z,11.50
2023-01-07T15:15:12.090Z,11.60
2023-01-07T15:17:40.520Z,11.50
2023-01-07T15:20:10.287Z,11.50
2023-01-07T15:23:02.428Z,11.40
2023-01-07T15:25:49.572Z,11.20
2023-01-07T15:28:33.403Z,11.10
2023-01-07T15:31:17.194Z,10.90
2023-01-07T15:34:06.553Z,10.70
2023-01-07T15:36:38.496Z,10.50
2023-01-07T15:39:06.180Z,10.40
2023-01-07T15:41:37.486Z,10.30
2023-01-07T15:44:13.203Z,10.20
2023-01-07T15:46:41.247Z,10.10
2023-01-07T15:49:08.667Z,10.50
2023-01-07T15:51:39.853Z,10.50
2023-01-07T15:54:23.375Z,10.10
2023-01-07T15:56:53.995Z,10.20
2023-01-07T15:59:30.973Z,10.10
2023-01-07T16:02:19.660Z,10.00
2023-01-07T16:04:50.146Z,10.00
2023-01-07T16:07:45.815Z,10.00
2023-01-07T16:10:32.324Z,10.00
2023-01-07T16:13:05.388Z,10.00
2023-01-07T16:15:35.816Z,10.00
2023-01-07T16:18:08.976Z,10.90
2023-01-07T16:20:39.333Z,10.00
2023-01-07T16:23:10.077Z,10.00
2023-01-07T16:25:50.051Z,10.10
2023-01-07T16:28:26.872Z,10.10
2023-01-07T16:30:55.549Z,10.70
2023-01-07T16:33:25.935Z,10.40
2023-01-07T16:35:57.658Z,10.10
2023-01-07T16:38:25.837Z,10.20
2023-01-07T16:40:53.570Z,10.20
2023-01-07T16:43:39.122Z,10.20
2023-01-07T16:46:26.774Z,10.20
2023-01-07T16:49:09.970Z,10.30
2023-01-07T16:51:38.943Z,10.30
2023-01-07T16:54:31.897Z,10.50
2023-01-07T16:57:02.325Z,10.30
2023-01-07T16:59:42.364Z,10.30
2023-01-07T17:02:33.559Z,10.30
2023-01-07T17:05:12.844Z,10.20
2023-01-07T17:07:40.970Z,10.10
2023-01-07T17:10:24.873Z,10.00
2023-01-07T17:13:04.147Z,10.00
2023-01-07T17:15:31.530Z,9.90
2023-01-07T17:18:11.317Z,9.80
2023-01-07T17:20:56.636Z,9.70
2023-01-07T17:23:27.275Z,9.70
2023-01-07T17:26:00.530Z,9.60
2023-01-07T17:28:36.006Z,10.00
2023-01-07T17:31:04.231Z,9.50
2023-01-07T17:33:31.878Z,9.50
2023-01-07T17:35:59.606Z,9.40
2023-01-07T17:38:29.140Z,9.30
2023-01-07T17:40:56.703Z,9.30
2023-01-07T17:43:35.195Z,9.20
2023-01-07T17:46:08.955Z,9.10
2023-01-07T17:48:36.848Z,9.00
2023-01-07T17:51:08.212Z,9.00
2023-01-07T17:53:44.540Z,10.60
2023-01-07T17:56:12.147Z,7.90
2023-01-07T17:58:41.305Z,8.80
2023-01-07T18:01:15.001Z,8.90
2023-01-07T18:03:45.965Z,10.00
2023-01-07T18:06:19.099Z,8.90
2023-01-07T18:08:48.320Z,9.00
2023-01-07T18:11:40.236Z,8.90
2023-01-07T18:14:09.503Z,9.30
2023-01-07T18:16:37.118Z,9.00
2023-01-07T18:19:04.728Z,9.00
2023-01-07T18:21:32.599Z,8.70
2023-01-07T18:24:00.216Z,8.60
2023-01-07T18:26:27.678Z,8.40
2023-01-07T18:28:55.123Z,10.00
2023-01-07T18:31:22.777Z,8.10
2023-01-07T18:33:50.313Z,8.00
2023-01-07T18:36:18.409Z,7.90
2023-01-07T18:38:45.877Z,7.70
2023-01-07T18:41:13.353Z,7.70
2023-01-07T18:43:40.770Z,7.60
2023-01-07T18:46:09.617Z,8.30
2023-01-07T18:48:37.311Z,7.40
2023-01-07T18:51:09.858Z,9.70
2023-01-07T18:53:38.261Z,7.50
2023-01-07T18:56:11.398Z,7.20
2023-01-07T18:58:39.681Z,7.20
2023-01-07T19:01:08.581Z,7.10
2023-01-07T19:03:36.964Z,7.10
2023-01-07T19:06:11.438Z,9.10
2023-01-07T19:08:42.190Z,7.30
2023-01-07T19:11:14.743Z,7.40
2023-01-07T19:13:42.317Z,6.90
2023-01-07T19:16:12.516Z,8.50
2023-01-07T19:18:40.642Z,6.80
2023-01-07T19:21:11.314Z,6.80
2023-01-07T19:23:39.136Z,6.80
2023-01-07T19:26:09.095Z,8.20
2023-01-07T19:28:38.506Z,6.80
2023-01-07T19:31:09.316Z,6.80
2023-01-07T19:33:37.375Z,7.50
2023-01-07T19:36:07.802Z,7.00
2023-01-07T19:38:43.564Z,6.80
2023-01-07T19:41:13.449Z,6.80
2023-01-07T19:43:41.178Z,6.80
2023-01-07T19:46:10.560Z,6.80
2023-01-07T19:48:41.636Z,6.80
2023-01-07T19:51:10.215Z,6.80
2023-01-07T19:53:37.913Z,6.80
2023-01-07T19:56:11.142Z,7.10
2023-01-07T19:58:39.778Z,8.10
2023-01-07T20:01:14.391Z,6.70
2023-01-07T20:03:45.417Z,6.70
2023-01-07T20:06:15.936Z,8.50
2023-01-07T20:08:44.365Z,8.00
2023-01-07T20:11:12.690Z,8.40
2023-01-07T20:13:40.266Z,8.70
2023-01-07T20:16:17.257Z,6.80
2023-01-07T20:18:47.648Z,7.40
2023-01-07T20:21:17.553Z,6.80
2023-01-07T20:23:45.426Z,6.80
2023-01-07T20:26:19.365Z,6.80
2023-01-07T20:28:47.086Z,7.70
2023-01-07T20:31:17.378Z,6.70
2023-01-07T20:33:45.263Z,6.70
2023-01-07T20:36:32.859Z,6.70
2023-01-07T20:39:05.863Z,6.70
2023-01-07T20:41:35.440Z,6.70
2023-01-07T20:44:08.728Z,6.60
2023-01-07T20:46:38.942Z,7.70
2023-01-07T20:49:07.047Z,6.50
2023-01-07T20:51:34.526Z,8.10
2023-01-07T20:54:02.339Z,8.10
2023-01-07T20:56:32.413Z,6.50
2023-01-07T20:59:01.222Z,7.70
2023-01-07T21:01:29.606Z,6.60
2023-01-07T21:03:57.427Z,6.80
2023-01-07T21:06:25.165Z,6.50
2023-01-07T21:08:52.752Z,6.50
2023-01-07T21:11:21.718Z,6.60
2023-01-07T21:13:50.715Z,6.60
2023-01-07T21:16:18.978Z,6.60
2023-01-07T21:18:47.024Z,8.30
2023-01-07T21:21:17.298Z,6.60
2023-01-07T21:23:46.873Z,7.10
2023-01-07T21:26:14.922Z,8.90
2023-01-07T21:28:44.339Z,6.70
2023-01-07T21:31:14.025Z,6.70
2023-01-07T21:33:42.333Z,6.70
2023-01-07T21:36:12.401Z,6.70
2023-01-07T21:38:39.999Z,6.70
2023-01-07T21:41:13.263Z,8.70
2023-01-07T21:43:41.559Z,8.50
2023-01-07T21:46:09.741Z,8.60
2023-01-07T21:48:38.193Z,8.40
2023-01-07T21:51:08.733Z,6.60
2023-01-07T21:53:36.985Z,7.60
2023-01-07T21:56:08.644Z,8.00
2023-01-07T21:58:36.986Z,6.60
2023-01-07T22:01:08.347Z,6.70
2023-01-07T22:03:37.138Z,8.70
2023-01-07T22:06:08.148Z,6.70
2023-01-07T22:08:35.782Z,6.70
2023-01-07T22:11:03.429Z,6.70
2023-01-07T22:13:30.891Z,6.60
2023-01-07T22:15:58.421Z,8.70
2023-01-07T22:18:25.942Z,7.60
2023-01-07T22:20:57.253Z,8.20
2023-01-07T22:23:24.773Z,6.60
2023-01-07T22:25:52.306Z,8.30
2023-01-07T22:28:23.360Z,6.80
2023-01-07T22:30:53.213Z,6.60
2023-01-07T22:33:22.515Z,8.90
2023-01-07T22:35:51.382Z,6.60
2023-01-07T22:38:22.632Z,7.90
2023-01-07T22:40:50.865Z,6.70
2023-01-07T22:43:20.185Z,8.70
2023-01-07T22:45:58.156Z,8.30
2023-01-07T22:48:32.194Z,6.70
2023-01-07T22:51:14.422Z,6.70
2023-01-07T22:53:41.916Z,8.20
2023-01-07T22:56:09.356Z,6.80
2023-01-07T22:58:36.821Z,8.50
2023-01-07T23:01:04.457Z,6.80
2023-01-07T23:03:32.112Z,7.30
2023-01-07T23:05:59.668Z,7.10
2023-01-07T23:08:27.216Z,7.50
2023-01-07T23:10:54.703Z,6.80
2023-01-07T23:13:22.766Z,6.90
2023-01-07T23:15:50.261Z,6.80
2023-01-07T23:18:17.723Z,8.40
2023-01-07T23:20:45.414Z,6.80
2023-01-07T23:23:13.019Z,6.80
2023-01-07T23:25:48.034Z,6.80
2023-01-07T23:28:17.152Z,6.80
2023-01-07T23:30:44.695Z,7.70
2023-01-07T23:33:12.188Z,7.70
2023-01-07T23:35:39.846Z,6.70
2023-01-07T23:38:07.334Z,5.60
2023-01-07T23:40:34.840Z,7.90
2023-01-07T23:43:03.490Z,6.70
2023-01-07T23:45:30.996Z,6.80
2023-01-07T23:47:58.414Z,8.50
2023-01-07T23:50:25.886Z,6.80
2023-01-07T23:52:53.301Z,6.90
2023-01-07T23:55:20.731Z,6.90
2023-01-07T23:57:48.141Z,8.20
